Portada
METAR-TAF:

METAR-TAF

Aeropuertos :

Koror, Babelthuap Island, Palaos

Aeropuerto Internacional Roman Tmetuchl

latitud: 07-22N, longitud: 134-32E, altitud: 54 m

Observación

El informe se hizo hace 49 minutos, a las 15:50 UTC
Viento 4 kt del este
Temperatura 27°C
Humedad 89%
Presión 1009 hPa
Visibilidad: 24.1 km
Nubes dispersas a una altura de 1600 ft
Cielo nuboso a una altura de 12000 ft
Cielo nuboso a una altura de 30000 ft

METAR: PTRO 281550Z COR 08004KT 15SM SCT016 BKN120 BKN300 27/25 A2979

Hora: 01:39 (16:39 UTC)

Pronóstico

El informe se hizo hace 5 horas y 19 minutos, a las 11:20 UTC
Pronóstico válido del 28 a las 12 UTC al 29 a las 12 UTC
Viento 9 kt del este
Visibilidad: 10 km
Nubes dispersas a una altura de 1600 ft
Nubes dispersas a una altura de 12000 ft
Cielo cubierto a una altura de 30000 ft
chaparrones en las proximidades

TAF: PTRO 281120Z 2812/2912 10009KT P6SM VCSH SCT016 SCT120 OVC300

Observaciones y pronósticos meteorológicos de más de 4000 aeropuertos (mensajes METAR y TAF).

Los puntos amarillos y rojos representan las estaciones disponibles.

Ponga el ratón en el punto deseado para ver el nombre de la estación.

Haga clic para ver las observaciones y los pronósticos meteorológicos.

Para cambiar el mapa : haga clic en los botones verdes con una cruz de color negro para hacer un zoom, en el botón verde con un guión para alejar o en las flechas verdes para mapas adyacentes.


METAR-TAF: